Time;durP1;ratioP1;P1;durP2;ratioP2;P2;SDS_P1;SDS_P2;PMS_P1;PMS_P2;Temp;Humidity;BMP_temperature;BMP_pressure;BME280_temperature;BME280_humidity;BME280_pressure;Samples;Min_cycle;Max_cycle;Signal;HPM_P1;HPM_P2
2022/12/05 00:01:58;;;;;;;6.10;5.50;;;20.60;39.80;;;;;;4991847;28;20038;-59
2022/12/05 00:04:24;;;;;;;5.72;5.20;;;20.60;39.80;;;;;;4993375;28;20038;-59
2022/12/05 00:06:49;;;;;;;6.97;5.50;;;20.60;39.80;;;;;;4993925;28;20128;-59
2022/12/05 00:09:15;;;;;;;5.85;5.25;;;20.50;39.70;;;;;;4994122;28;20050;-59
2022/12/05 00:11:43;;;;;;;6.15;5.35;;;20.50;39.80;;;;;;4996337;28;20482;-59
2022/12/05 00:14:09;;;;;;;6.07;5.40;;;20.50;39.80;;;;;;4992741;28;20537;-59
2022/12/05 00:16:37;;;;;;;5.28;4.78;;;20.50;39.80;;;;;;4995030;28;20038;-59
2022/12/05 00:19:06;;;;;;;5.85;5.25;;;20.50;39.80;;;;;;4993309;28;20035;-59
2022/12/05 00:21:35;;;;;;;5.93;5.10;;;20.50;39.80;;;;;;4995147;28;20049;-59
2022/12/05 00:24:02;;;;;;;5.75;5.18;;;20.40;39.70;;;;;;4991680;28;20077;-59
2022/12/05 00:26:30;;;;;;;5.35;4.85;;;20.40;39.80;;;;;;4992238;28;20398;-58
2022/12/05 00:28:56;;;;;;;6.28;5.68;;;20.40;39.80;;;;;;4992819;28;20176;-59
2022/12/05 00:31:23;;;;;;;5.95;4.85;;;20.40;39.90;;;;;;4992492;28;20031;-60
2022/12/05 00:33:50;;;;;;;5.32;4.82;;;20.30;39.80;;;;;;4993010;28;20093;-59
2022/12/05 00:36:19;;;;;;;6.00;5.50;;;20.30;39.80;;;;;;4993645;28;20034;-60
2022/12/05 00:38:44;;;;;;;5.90;5.30;;;20.30;39.80;;;;;;4992752;28;20046;-59
2022/12/05 00:41:14;;;;;;;5.78;5.18;;;20.30;39.80;;;;;;4993667;28;20049;-60
2022/12/05 00:43:40;;;;;;;5.40;4.90;;;20.30;39.70;;;;;;4992948;28;20062;-59
2022/12/05 00:46:08;;;;;;;5.70;5.10;;;20.30;39.70;;;;;;4992650;28;20064;-59
2022/12/05 00:48:35;;;;;;;5.22;4.72;;;20.20;39.70;;;;;;4992612;28;20038;-59
2022/12/05 00:51:04;;;;;;;5.40;4.57;;;20.20;39.70;;;;;;4992088;28;20073;-59
2022/12/05 00:53:30;;;;;;;5.30;4.80;;;20.20;39.70;;;;;;4994387;28;20046;-59
2022/12/05 00:56:00;;;;;;;5.28;4.78;;;20.20;39.70;;;;;;4992064;28;20034;-59
2022/12/05 00:58:26;;;;;;;5.85;5.32;;;20.20;39.70;;;;;;4993068;28;20184;-59
2022/12/05 01:00:51;;;;;;;6.28;5.35;;;20.20;39.70;;;;;;4991051;28;20538;-59
2022/12/05 01:03:17;;;;;;;4.90;4.50;;;20.10;39.70;;;;;;4993100;28;20046;-59
2022/12/05 01:05:43;;;;;;;6.03;5.28;;;20.10;39.70;;;;;;4992963;28;20029;-60
2022/12/05 01:08:08;;;;;;;4.70;4.13;;;20.10;39.70;;;;;;4992130;28;20041;-60
2022/12/05 01:10:34;;;;;;;5.22;4.70;;;20.10;39.70;;;;;;4993548;28;20132;-58
2022/12/05 01:12:59;;;;;;;5.20;4.70;;;20.10;39.80;;;;;;4991454;28;20085;-59
2022/12/05 01:15:25;;;;;;;5.32;4.72;;;20.10;39.80;;;;;;4992756;28;20034;-59
2022/12/05 01:17:51;;;;;;;4.85;4.32;;;20.10;39.80;;;;;;4993890;28;20039;-59
2022/12/05 01:20:16;;;;;;;5.03;4.53;;;20.00;39.70;;;;;;4991544;28;20101;-59
2022/12/05 01:22:42;;;;;;;5.50;4.88;;;20.00;39.80;;;;;;4993088;28;20125;-59
2022/12/05 01:25:08;;;;;;;4.63;4.22;;;20.00;39.80;;;;;;4992213;28;20045;-59
2022/12/05 01:27:33;;;;;;;4.82;4.18;;;20.00;39.80;;;;;;4992809;28;20374;-59
2022/12/05 01:29:59;;;;;;;4.97;4.45;;;20.00;39.80;;;;;;4992126;28;20584;-59
2022/12/05 01:32:25;;;;;;;4.72;4.18;;;20.00;39.90;;;;;;4991115;28;20059;-60
2022/12/05 01:34:50;;;;;;;4.28;3.88;;;20.00;39.90;;;;;;4993261;28;20084;-59
2022/12/05 01:37:16;;;;;;;4.53;4.13;;;19.90;39.80;;;;;;4993129;28;20740;-59
2022/12/05 01:39:41;;;;;;;4.45;4.05;;;19.90;39.80;;;;;;4992188;28;20121;-60
2022/12/05 01:42:07;;;;;;;5.47;4.32;;;19.90;39.80;;;;;;4991563;28;20165;-60
2022/12/05 01:44:33;;;;;;;5.18;4.68;;;19.90;39.90;;;;;;4990566;28;20072;-58
2022/12/05 01:46:58;;;;;;;4.90;4.50;;;19.90;39.90;;;;;;4993683;28;20044;-59
2022/12/05 01:49:32;;;;;;;4.65;4.07;;;19.90;39.90;;;;;;4992526;28;20046;-58
2022/12/05 01:52:03;;;;;;;4.72;4.32;;;19.90;40.00;;;;;;4992422;28;20053;-59
2022/12/05 01:54:29;;;;;;;4.82;4.32;;;19.80;39.90;;;;;;4990503;28;20100;-59
2022/12/05 01:56:59;;;;;;;5.03;4.53;;;19.80;39.90;;;;;;4993105;28;20038;-59
2022/12/05 01:59:28;;;;;;;4.93;4.43;;;19.80;40.00;;;;;;4989924;28;20924;-59
2022/12/05 02:01:54;;;;;;;4.28;3.80;;;19.80;40.00;;;;;;4992220;28;20043;-58
2022/12/05 02:04:19;;;;;;;4.53;4.07;;;19.80;40.00;;;;;;4989776;28;20571;-59
2022/12/05 02:06:45;;;;;;;4.47;4.07;;;19.80;40.00;;;;;;4991647;28;20623;-59
2022/12/05 02:09:11;;;;;;;4.80;4.30;;;19.70;39.90;;;;;;4989866;28;20128;-59
2022/12/05 02:11:52;;;;;;;4.53;4.13;;;19.70;39.90;;;;;;4991180;28;20049;-58
2022/12/05 02:14:41;;;;;;;4.25;3.85;;;19.70;40.00;;;;;;4988628;28;20074;-59
2022/12/05 02:17:22;;;;;;;4.57;4.18;;;19.70;40.00;;;;;;4989014;28;20042;-59
2022/12/05 02:20:17;;;;;;;4.90;4.45;;;19.70;40.00;;;;;;4989475;28;20236;-58
2022/12/05 02:23:05;;;;;;;4.90;4.40;;;19.70;40.00;;;;;;4989851;28;20393;-60
2022/12/05 02:26:07;;;;;;;5.03;4.40;;;19.70;40.10;;;;;;4989243;28;20116;-60
2022/12/05 02:28:54;;;;;;;4.55;4.15;;;19.60;40.10;;;;;;4989861;28;20125;-59
2022/12/05 02:31:54;;;;;;;4.57;4.18;;;19.60;40.50;;;;;;4991007;28;20053;-59
2022/12/05 02:34:39;;;;;;;4.65;4.25;;;19.60;40.10;;;;;;4988920;28;20038;-59
2022/12/05 02:37:27;;;;;;;4.57;4.15;;;19.60;40.20;;;;;;4992569;28;20042;-59
2022/12/05 02:40:09;;;;;;;4.40;4.00;;;19.60;40.20;;;;;;4991666;28;20038;-59
2022/12/05 02:42:50;;;;;;;4.97;4.50;;;19.50;40.20;;;;;;4991781;28;20068;-59
2022/12/05 02:45:18;;;;;;;4.63;4.22;;;19.60;40.20;;;;;;4990776;28;20547;-60
2022/12/05 02:47:50;;;;;;;4.65;4.25;;;19.50;40.20;;;;;;4990994;28;20121;-59
2022/12/05 02:50:21;;;;;;;4.97;4.35;;;19.50;40.20;;;;;;4991701;28;20409;-59
2022/12/05 02:52:49;;;;;;;4.47;4.00;;;19.60;40.30;;;;;;4988259;28;20128;-59
2022/12/05 02:55:17;;;;;;;4.60;4.20;;;19.50;40.20;;;;;;4993383;28;20087;-59
2022/12/05 02:57:49;;;;;;;4.80;4.35;;;19.50;40.20;;;;;;4990785;28;20042;-59
2022/12/05 03:00:15;;;;;;;5.10;4.60;;;19.50;40.30;;;;;;4990895;28;20532;-59
2022/12/05 03:02:41;;;;;;;4.53;4.13;;;19.50;40.30;;;;;;4991591;28;20038;-60
2022/12/05 03:05:41;;;;;;;4.65;4.18;;;19.50;40.30;;;;;;4991091;28;20136;-59
2022/12/05 03:08:13;;;;;;;4.90;4.40;;;19.50;40.20;;;;;;4989981;28;20046;-59
2022/12/05 03:10:43;;;;;;;4.63;4.22;;;19.40;40.30;;;;;;4989281;28;20051;-59
2022/12/05 03:13:13;;;;;;;4.90;4.40;;;19.40;40.30;;;;;;4991212;28;21739;-60
2022/12/05 03:15:55;;;;;;;5.25;4.75;;;19.40;40.30;;;;;;4991956;28;20033;-59
2022/12/05 03:18:25;;;;;;;4.82;4.43;;;19.40;40.30;;;;;;4990252;28;20038;-58
2022/12/05 03:20:56;;;;;;;5.00;4.50;;;19.40;40.40;;;;;;4993941;28;20038;-58
2022/12/05 03:23:24;;;;;;;5.18;4.68;;;19.40;40.40;;;;;;4991563;28;20156;-58
2022/12/05 03:26:10;;;;;;;5.28;4.78;;;19.40;40.40;;;;;;4992279;28;20046;-58
2022/12/05 03:28:47;;;;;;;5.45;4.60;;;19.40;40.40;;;;;;4990336;28;20042;-58
2022/12/05 03:31:22;;;;;;;4.55;4.15;;;19.40;40.40;;;;;;4990499;28;20038;-60
2022/12/05 03:33:51;;;;;;;5.05;4.55;;;19.40;40.50;;;;;;4989913;28;20046;-59
2022/12/05 03:36:24;;;;;;;5.05;4.55;;;19.40;40.40;;;;;;4993626;28;20474;-60
2022/12/05 03:38:56;;;;;;;5.40;4.90;;;19.30;40.40;;;;;;4994872;28;20045;-59
2022/12/05 03:41:46;;;;;;;5.20;4.70;;;19.40;40.50;;;;;;4996709;28;20891;-59
2022/12/05 03:44:13;;;;;;;5.00;4.50;;;19.40;40.50;;;;;;4993929;28;20065;-59
2022/12/05 03:46:48;;;;;;;5.22;4.72;;;19.30;40.50;;;;;;4993815;28;20536;-59
2022/12/05 03:49:26;;;;;;;4.93;4.43;;;19.30;40.50;;;;;;4994111;28;20050;-59
2022/12/05 03:52:03;;;;;;;5.25;4.75;;;19.30;40.50;;;;;;4993115;28;20467;-59
2022/12/05 03:54:34;;;;;;;5.20;4.70;;;19.30;40.50;;;;;;4992896;28;20048;-59
2022/12/05 03:57:11;;;;;;;5.38;4.80;;;19.30;40.60;;;;;;4996999;28;20042;-59
2022/12/05 03:59:45;;;;;;;5.57;4.38;;;19.30;41.20;;;;;;4994001;28;20390;-59
2022/12/05 04:02:22;;;;;;;5.32;4.82;;;19.30;40.60;;;;;;4994235;28;20516;-60
2022/12/05 04:04:57;;;;;;;5.13;4.63;;;19.30;40.60;;;;;;4994569;28;20486;-59
2022/12/05 04:07:24;;;;;;;5.95;4.65;;;19.30;40.60;;;;;;4995007;28;20045;-59
2022/12/05 04:09:56;;;;;;;5.15;4.65;;;19.30;40.60;;;;;;4996289;28;20050;-59
2022/12/05 04:12:26;;;;;;;5.20;4.70;;;19.20;40.50;;;;;;4992937;28;20116;-60
2022/12/05 04:15:04;;;;;;;5.30;4.77;;;19.20;40.60;;;;;;4993878;28;20042;-59
2022/12/05 04:17:39;;;;;;;5.90;5.30;;;19.20;40.60;;;;;;4994997;28;20297;-59
2022/12/05 04:22:58;;;;;;;5.80;5.20;;;19.20;40.60;;;;;;4994289;28;20123;-60
2022/12/05 04:25:34;;;;;;;5.40;4.88;;;19.20;40.70;;;;;;4994127;28;20055;-59
2022/12/05 04:28:13;;;;;;;6.68;5.00;;;19.20;40.70;;;;;;4994889;28;20124;-60
2022/12/05 04:30:49;;;;;;;5.68;5.07;;;19.20;40.70;;;;;;4993486;28;20384;-59
2022/12/05 04:33:21;;;;;;;6.15;5.07;;;19.20;40.60;;;;;;4993246;28;20450;-60
2022/12/05 04:35:58;;;;;;;5.47;4.82;;;19.20;40.70;;;;;;4993609;28;20147;-60
2022/12/05 04:38:38;;;;;;;6.07;5.25;;;19.20;40.70;;;;;;4992962;28;20045;-58
2022/12/05 04:41:13;;;;;;;5.43;4.93;;;19.20;40.70;;;;;;4993322;28;20375;-58
2022/12/05 04:43:40;;;;;;;5.32;4.82;;;19.10;40.70;;;;;;4991166;28;20490;-59
2022/12/05 04:46:09;;;;;;;5.28;4.78;;;19.10;40.80;;;;;;4994512;28;20042;-59
2022/12/05 04:48:38;;;;;;;5.95;5.35;;;19.10;40.80;;;;;;4992298;28;21030;-60
2022/12/05 04:51:06;;;;;;;5.50;4.90;;;19.10;40.70;;;;;;4993819;28;20049;-59
2022/12/05 04:53:32;;;;;;;5.60;4.78;;;19.10;40.80;;;;;;4994091;28;20046;-59
2022/12/05 04:56:00;;;;;;;5.13;4.43;;;19.10;40.80;;;;;;4992307;28;20398;-58
2022/12/05 04:58:28;;;;;;;5.97;5.28;;;19.10;40.80;;;;;;4993790;28;20074;-59
2022/12/05 05:01:02;;;;;;;5.57;5.07;;;19.10;40.80;;;;;;4996111;28;20970;-59
2022/12/05 05:03:56;;;;;;;5.07;4.57;;;19.10;41.60;;;;;;4994646;28;20048;-59
2022/12/05 05:06:21;;;;;;;5.38;4.88;;;19.10;40.90;;;;;;4995929;28;20033;-58
2022/12/05 05:08:52;;;;;;;5.22;4.72;;;19.10;40.90;;;;;;4993608;28;20044;-59
2022/12/05 05:11:21;;;;;;;4.65;4.20;;;19.10;40.90;;;;;;4993977;28;20168;-59
2022/12/05 05:13:47;;;;;;;5.72;4.95;;;19.10;40.90;;;;;;4993298;28;20034;-59
2022/12/05 05:16:16;;;;;;;5.30;4.80;;;19.00;40.90;;;;;;4994522;28;20038;-59
2022/12/05 05:18:46;;;;;;;5.90;4.40;;;19.00;40.90;;;;;;4992322;28;20034;-58
2022/12/05 05:21:24;;;;;;;5.05;4.55;;;19.00;40.90;;;;;;4993472;28;20038;-60
2022/12/05 05:23:50;;;;;;;5.22;4.57;;;19.00;40.90;;;;;;4993142;28;20191;-61
2022/12/05 05:26:16;;;;;;;4.85;4.32;;;19.00;40.90;;;;;;4993180;28;20478;-59
2022/12/05 05:28:42;;;;;;;4.50;4.03;;;19.00;41.00;;;;;;4991981;28;20042;-58
2022/12/05 05:31:08;;;;;;;4.90;4.40;;;19.00;41.00;;;;;;4993508;28;20754;-59
2022/12/05 05:33:34;;;;;;;5.00;4.30;;;19.00;41.10;;;;;;4992778;28;20038;-58
2022/12/05 05:36:08;;;;;;;5.22;4.72;;;19.00;41.00;;;;;;4991935;28;20465;-60
2022/12/05 05:38:41;;;;;;;5.25;4.40;;;19.00;41.00;;;;;;4992317;28;20068;-59
2022/12/05 05:41:16;;;;;;;4.30;3.90;;;19.00;41.00;;;;;;4991506;28;20675;-59
2022/12/05 05:43:42;;;;;;;4.60;4.10;;;19.00;41.10;;;;;;4991664;28;20058;-60
2022/12/05 05:46:08;;;;;;;4.72;4.32;;;19.00;41.10;;;;;;4994225;28;20049;-61
2022/12/05 05:48:34;;;;;;;4.47;4.07;;;19.00;41.90;;;;;;4992245;28;20038;-59
2022/12/05 05:51:01;;;;;;;4.68;4.22;;;19.00;41.10;;;;;;4990372;28;20034;-59
2022/12/05 05:53:27;;;;;;;6.00;4.25;;;19.00;41.10;;;;;;4991190;28;21325;-58
2022/12/05 05:55:53;;;;;;;4.53;3.95;;;19.00;41.10;;;;;;4992591;28;20125;-60
2022/12/05 05:58:19;;;;;;;5.68;4.00;;;19.00;41.10;;;;;;4991552;28;20405;-61
2022/12/05 06:00:44;;;;;;;5.00;4.10;;;19.00;41.10;;;;;;4990926;28;20038;-58
2022/12/05 06:03:10;;;;;;;4.72;4.22;;;19.00;41.20;;;;;;4992566;28;20045;-59
2022/12/05 06:05:35;;;;;;;4.95;4.13;;;19.00;41.20;;;;;;4992183;28;20046;-59
2022/12/05 06:08:01;;;;;;;4.30;3.90;;;19.00;41.30;;;;;;4990222;28;20046;-60
2022/12/05 06:10:28;;;;;;;4.97;3.78;;;19.00;41.30;;;;;;4994655;28;20401;-60
2022/12/05 06:12:55;;;;;;;5.25;4.03;;;19.00;41.40;;;;;;4992522;28;20042;-59
2022/12/05 06:15:20;;;;;;;6.47;4.50;;;19.00;41.40;;;;;;4993365;28;20066;-59
2022/12/05 06:17:46;;;;;;;5.35;4.47;;;19.00;41.60;;;;;;4988954;28;20534;-59
2022/12/05 06:20:12;;;;;;;4.60;3.78;;;19.20;41.50;;;;;;4991343;28;20041;-61
2022/12/05 06:22:37;;;;;;;4.53;3.63;;;19.80;40.80;;;;;;4990723;28;20077;-61
2022/12/05 06:25:04;;;;;;;4.35;3.95;;;20.50;39.70;;;;;;4989801;28;20053;-59
2022/12/05 06:27:30;;;;;;;4.45;4.05;;;21.20;38.70;;;;;;4992748;28;20042;-59
2022/12/05 06:29:56;;;;;;;4.95;3.83;;;21.80;37.70;;;;;;4990253;28;20052;-60
2022/12/05 06:32:22;;;;;;;3.85;3.45;;;22.10;37.10;;;;;;4988983;28;20046;-59
2022/12/05 06:34:47;;;;;;;5.47;3.90;;;22.20;36.90;;;;;;4990860;28;20038;-60
2022/12/05 06:37:13;;;;;;;5.72;3.83;;;22.20;36.80;;;;;;4992016;28;20040;-59
2022/12/05 06:39:39;;;;;;;3.53;3.22;;;22.20;36.70;;;;;;4991012;28;20088;-59
2022/12/05 06:42:04;;;;;;;4.40;3.97;;;22.30;36.70;;;;;;4992843;28;20102;-60
2022/12/05 06:44:30;;;;;;;4.13;3.55;;;22.30;36.60;;;;;;4991622;28;20073;-59
2022/12/05 06:46:56;;;;;;;4.25;3.40;;;22.30;36.60;;;;;;4992449;28;20398;-58
2022/12/05 06:49:25;;;;;;;3.78;3.45;;;22.20;36.50;;;;;;4991979;28;20042;-61
2022/12/05 06:51:51;;;;;;;5.07;3.53;;;22.20;36.70;;;;;;4991075;28;20046;-59
2022/12/05 06:54:17;;;;;;;4.25;3.45;;;22.20;36.80;;;;;;4987259;28;20046;-60
2022/12/05 06:56:42;;;;;;;3.95;3.25;;;22.10;36.90;;;;;;4991176;28;20499;-59
2022/12/05 06:59:08;;;;;;;5.85;3.00;;;22.10;37.00;;;;;;4990884;28;20042;-59
2022/12/05 07:01:40;;;;;;;6.38;3.50;;;22.10;37.00;;;;;;4989925;28;20181;-59
2022/12/05 07:04:19;;;;;;;4.50;3.42;;;22.20;37.00;;;;;;4989026;28;20146;-58
2022/12/05 07:06:47;;;;;;;5.45;3.53;;;22.20;37.00;;;;;;4993226;28;20880;-58
2022/12/05 07:09:13;;;;;;;4.07;3.30;;;22.30;37.00;;;;;;4989373;28;20485;-59
2022/12/05 07:11:39;;;;;;;4.72;3.00;;;22.30;37.10;;;;;;4993930;28;20042;-58
2022/12/05 07:14:05;;;;;;;6.05;3.40;;;22.30;37.20;;;;;;4994330;28;20394;-59
2022/12/05 07:16:31;;;;;;;4.68;2.90;;;22.40;37.30;;;;;;4994717;28;20046;-59
2022/12/05 07:18:57;;;;;;;4.70;2.92;;;22.40;37.30;;;;;;4995518;28;20046;-60
2022/12/05 07:21:23;;;;;;;3.50;2.63;;;22.40;37.40;;;;;;4995095;28;20052;-59
2022/12/05 07:23:50;;;;;;;6.22;2.67;;;22.40;37.40;;;;;;4994930;28;20069;-60
2022/12/05 07:26:19;;;;;;;3.53;2.60;;;22.40;37.50;;;;;;4995799;28;20038;-60
2022/12/05 07:28:45;;;;;;;4.47;2.95;;;22.50;37.60;;;;;;4996168;28;20045;-60
2022/12/05 07:31:18;;;;;;;4.05;2.65;;;22.40;37.70;;;;;;4993824;28;20975;-62
2022/12/05 07:33:44;;;;;;;4.45;2.85;;;22.40;37.80;;;;;;4995545;28;20037;-59
2022/12/05 07:36:17;;;;;;;3.60;2.40;;;22.40;37.90;;;;;;4994236;28;20499;-59
2022/12/05 07:38:43;;;;;;;3.25;2.47;;;22.40;38.00;;;;;;5010977;28;20129;-59
2022/12/05 07:41:18;;;;;;;2.47;2.28;;;22.40;38.10;;;;;;4994708;28;20157;-59
2022/12/05 07:43:43;;;;;;;3.08;2.40;;;22.50;38.20;;;;;;4994353;28;20054;-59
2022/12/05 07:46:10;;;;;;;3.47;2.33;;;22.50;38.20;;;;;;4995610;28;20069;-60
2022/12/05 07:48:36;;;;;;;2.90;2.22;;;22.50;38.30;;;;;;4993657;28;20068;-58
2022/12/05 07:51:03;;;;;;;2.97;2.05;;;22.50;38.30;;;;;;4995495;28;20044;-59
2022/12/05 07:53:31;;;;;;;2.08;1.80;;;22.50;38.40;;;;;;4992574;28;20073;-59
2022/12/05 07:56:00;;;;;;;2.45;1.98;;;22.60;38.50;;;;;;4993881;28;20046;-60
2022/12/05 07:58:30;;;;;;;3.65;1.90;;;22.60;38.50;;;;;;4993623;28;20553;-59
2022/12/05 08:00:57;;;;;;;3.80;2.33;;;22.70;38.50;;;;;;4993165;28;20129;-59
2022/12/05 08:03:23;;;;;;;3.85;1.75;;;22.70;38.50;;;;;;4992614;28;20069;-59
2022/12/05 08:05:49;;;;;;;3.75;1.80;;;22.70;38.40;;;;;;4994453;28;20117;-59
2022/12/05 08:08:14;;;;;;;3.00;1.95;;;22.70;38.40;;;;;;4992505;28;20037;-58
2022/12/05 08:10:40;;;;;;;2.63;1.65;;;22.70;38.40;;;;;;4994584;28;20057;-59
2022/12/05 08:13:07;;;;;;;4.78;2.20;;;22.70;38.40;;;;;;4994068;28;20056;-60
2022/12/05 08:15:34;;;;;;;2.22;1.70;;;22.70;38.50;;;;;;4993247;28;20449;-58
2022/12/05 08:18:00;;;;;;;4.03;1.90;;;22.70;38.40;;;;;;4992391;28;20037;-61
2022/12/05 08:20:26;;;;;;;2.30;1.63;;;22.70;38.50;;;;;;4993415;28;20041;-61
2022/12/05 08:22:52;;;;;;;6.10;1.80;;;22.70;38.50;;;;;;4993135;28;20103;-59
2022/12/05 08:25:18;;;;;;;4.88;1.85;;;22.80;38.50;;;;;;4994605;28;20105;-59
2022/12/05 08:27:44;;;;;;;1.83;1.60;;;22.80;38.50;;;;;;4994144;28;20402;-58
2022/12/05 08:30:10;;;;;;;3.30;1.35;;;22.80;38.40;;;;;;4991053;28;20041;-58
2022/12/05 08:32:35;;;;;;;1.90;1.65;;;22.80;38.40;;;;;;4991930;28;20064;-60
2022/12/05 08:35:01;;;;;;;2.45;1.50;;;22.80;38.60;;;;;;4992333;28;20042;-60
2022/12/05 08:37:26;;;;;;;4.78;1.58;;;22.80;38.70;;;;;;4992753;28;20040;-60
2022/12/05 08:39:52;;;;;;;2.25;1.70;;;22.90;38.90;;;;;;4991156;28;20136;-60
2022/12/05 08:42:17;;;;;;;2.00;1.48;;;22.80;38.90;;;;;;4991850;28;20054;-61
2022/12/05 08:44:43;;;;;;;2.95;1.50;;;22.90;39.10;;;;;;4991712;28;21461;-59
2022/12/05 08:47:08;;;;;;;2.53;1.40;;;22.80;39.00;;;;;;4993833;28;20136;-59
2022/12/05 08:49:34;;;;;;;2.88;1.45;;;22.90;39.10;;;;;;4992075;28;20035;-57
2022/12/05 08:52:00;;;;;;;1.98;1.52;;;22.90;39.20;;;;;;4994250;28;20042;-59
2022/12/05 08:54:25;;;;;;;3.67;1.60;;;22.90;39.20;;;;;;4989984;28;20039;-60
2022/12/05 08:56:51;;;;;;;2.20;1.35;;;22.80;39.10;;;;;;4991153;28;20436;-60
2022/12/05 08:59:18;;;;;;;2.53;1.40;;;22.90;39.40;;;;;;4993111;28;20042;-60
2022/12/05 09:01:44;;;;;;;2.50;1.10;;;22.90;39.60;;;;;;4992943;28;20101;-59
2022/12/05 09:04:11;;;;;;;2.15;1.45;;;22.90;39.70;;;;;;4991072;28;20944;-60
2022/12/05 09:06:38;;;;;;;3.50;1.60;;;23.00;39.90;;;;;;4993003;28;20112;-60
2022/12/05 09:09:06;;;;;;;1.58;1.25;;;23.00;39.80;;;;;;4991573;28;20401;-59
2022/12/05 09:11:35;;;;;;;3.08;1.30;;;23.00;40.00;;;;;;4993575;28;20046;-60
2022/12/05 09:14:01;;;;;;;2.85;1.20;;;23.00;40.00;;;;;;4990288;28;20560;-59
2022/12/05 09:16:30;;;;;;;1.65;1.50;;;23.00;39.90;;;;;;4993536;28;20088;-60
2022/12/05 09:18:57;;;;;;;1.75;1.35;;;23.00;39.90;;;;;;4989381;28;20390;-59
2022/12/05 09:21:25;;;;;;;3.00;1.30;;;23.00;40.00;;;;;;4991133;28;20460;-58
2022/12/05 09:23:52;;;;;;;1.25;1.15;;;23.00;39.90;;;;;;4992345;28;20037;-59
2022/12/05 09:26:20;;;;;;;3.03;1.25;;;23.00;39.90;;;;;;4993338;28;20038;-60
2022/12/05 09:28:46;;;;;;;2.22;1.25;;;23.10;39.80;;;;;;4992171;28;20133;-60
2022/12/05 09:31:18;;;;;;;3.60;1.17;;;23.10;39.80;;;;;;4994596;28;20038;-59
2022/12/05 09:33:44;;;;;;;1.80;1.00;;;23.10;39.70;;;;;;4990926;28;20038;-59
2022/12/05 09:36:16;;;;;;;1.77;1.17;;;23.10;39.60;;;;;;4992782;28;20057;-60
2022/12/05 09:38:42;;;;;;;3.05;1.23;;;23.10;39.70;;;;;;4991166;28;20142;-59
2022/12/05 09:44:50;;;;;;;1.58;1.33;;;23.10;39.70;;;;;;4992739;28;20434;-60
2022/12/05 09:47:34;;;;;;;2.25;1.08;;;23.10;39.80;;;;;;4992471;28;20131;-60
2022/12/05 09:50:22;;;;;;;1.70;1.13;;;23.10;39.90;;;;;;4990437;28;20481;-59
2022/12/05 09:52:54;;;;;;;1.38;1.13;;;23.10;39.80;;;;;;4992008;28;20126;-58
2022/12/05 09:55:20;;;;;;;1.10;1.00;;;23.10;39.70;;;;;;4993018;28;20056;-59
2022/12/05 09:57:55;;;;;;;1.95;1.05;;;23.10;39.60;;;;;;4992354;28;20951;-58
2022/12/05 10:00:21;;;;;;;1.75;1.20;;;23.10;39.50;;;;;;4993323;28;20064;-59
2022/12/05 10:03:04;;;;;;;1.90;1.38;;;23.10;39.50;;;;;;4991550;28;20397;-60
2022/12/05 10:05:47;;;;;;;1.83;1.30;;;23.00;39.40;;;;;;4992270;28;20077;-59
2022/12/05 10:08:30;;;;;;;1.55;1.13;;;22.70;39.60;;;;;;4991346;28;20046;-59
2022/12/05 10:11:17;;;;;;;1.45;1.02;;;22.50;40.10;;;;;;4991913;28;20227;-58
2022/12/05 10:14:00;;;;;;;1.60;1.20;;;22.40;40.40;;;;;;4991555;28;20510;-60
2022/12/05 10:16:33;;;;;;;2.05;1.20;;;22.30;40.50;;;;;;4993688;28;20037;-59
2022/12/05 10:19:25;;;;;;;2.05;1.08;;;22.20;41.30;;;;;;4992083;28;20034;-60
2022/12/05 10:21:57;;;;;;;1.20;1.10;;;22.20;40.60;;;;;;4993626;28;20044;-59
2022/12/05 10:24:30;;;;;;;1.20;1.10;;;22.10;41.30;;;;;;4992394;28;20061;-59
2022/12/05 10:27:01;;;;;;;1.10;1.00;;;22.10;40.50;;;;;;4993996;28;20129;-59
2022/12/05 10:29:49;;;;;;;1.20;1.02;;;22.10;40.50;;;;;;4991265;28;20049;-59
2022/12/05 10:32:21;;;;;;;1.83;0.98;;;22.10;40.50;;;;;;4990962;28;20404;-59
2022/12/05 10:34:50;;;;;;;1.20;1.10;;;22.00;40.50;;;;;;4992296;28;20128;-59
2022/12/05 10:37:20;;;;;;;2.53;1.13;;;22.00;40.50;;;;;;4992698;28;20077;-59
2022/12/05 10:39:48;;;;;;;1.48;1.20;;;22.00;40.40;;;;;;4991721;28;20046;-59
2022/12/05 10:42:29;;;;;;;1.92;1.10;;;22.00;40.50;;;;;;4991255;28;20123;-59
2022/12/05 10:44:58;;;;;;;1.35;1.20;;;22.00;40.30;;;;;;4992077;28;20038;-60
2022/12/05 10:47:24;;;;;;;2.33;1.20;;;22.00;40.30;;;;;;4990671;28;20416;-59
2022/12/05 10:49:50;;;;;;;1.02;0.93;;;22.00;40.30;;;;;;4992601;28;20038;-59
2022/12/05 10:52:16;;;;;;;1.40;1.30;;;22.00;40.30;;;;;;4991644;28;20126;-60
2022/12/05 10:54:54;;;;;;;1.20;1.10;;;22.00;40.30;;;;;;4990739;28;20056;-59
2022/12/05 10:57:29;;;;;;;1.58;1.10;;;21.90;40.20;;;;;;4992493;28;20474;-61
2022/12/05 10:59:56;;;;;;;1.23;1.02;;;21.90;40.20;;;;;;4991532;28;20034;-59
2022/12/05 11:02:23;;;;;;;1.58;1.20;;;21.90;40.30;;;;;;4993997;28;20042;-60
2022/12/05 11:04:49;;;;;;;1.60;1.10;;;21.90;40.30;;;;;;4989190;28;20042;-60
2022/12/05 11:07:56;;;;;;;1.45;1.15;;;21.90;40.30;;;;;;4992178;28;20043;-59
2022/12/05 11:10:29;;;;;;;1.90;1.10;;;21.90;40.40;;;;;;4980265;28;20060;-58
2022/12/05 11:12:57;;;;;;;1.05;0.95;;;21.90;40.40;;;;;;4990954;28;20121;-61
2022/12/05 11:15:25;;;;;;;0.98;0.93;;;21.90;40.40;;;;;;4991318;28;20128;-60
2022/12/05 11:17:53;;;;;;;2.15;1.20;;;21.90;40.40;;;;;;4990612;28;20045;-59
2022/12/05 11:20:18;;;;;;;1.15;1.02;;;21.90;40.40;;;;;;4988459;28;20046;-61
2022/12/05 11:22:55;;;;;;;1.55;0.75;;;21.90;40.40;;;;;;4991535;28;20042;-60
2022/12/05 11:25:29;;;;;;;1.40;1.15;;;21.90;40.50;;;;;;4990947;28;20073;-60
2022/12/05 11:27:58;;;;;;;3.40;1.20;;;21.90;41.30;;;;;;4990400;28;20073;-59
2022/12/05 11:30:26;;;;;;;1.45;1.00;;;21.90;40.50;;;;;;4990605;28;20042;-60
2022/12/05 11:33:19;;;;;;;1.70;1.17;;;21.90;40.50;;;;;;4991382;28;20042;-59
2022/12/05 11:35:49;;;;;;;1.30;1.00;;;21.90;40.50;;;;;;4990480;28;20048;-59
2022/12/05 11:38:17;;;;;;;1.45;1.17;;;21.90;40.50;;;;;;4990508;28;20042;-60
2022/12/05 11:40:54;;;;;;;1.42;0.75;;;21.90;40.50;;;;;;4990025;28;20036;-59
2022/12/05 11:43:22;;;;;;;1.13;1.00;;;21.90;40.50;;;;;;4990721;28;20090;-60
2022/12/05 11:45:55;;;;;;;1.67;1.20;;;21.90;40.50;;;;;;4989588;28;20197;-59
2022/12/05 11:48:36;;;;;;;1.33;1.23;;;21.90;40.70;;;;;;4991107;28;20068;-60
2022/12/05 11:51:24;;;;;;;0.98;0.95;;;21.90;40.80;;;;;;4972918;28;20103;-59
2022/12/05 11:54:17;;;;;;;1.10;1.00;;;21.90;40.80;;;;;;4989375;28;20113;-60
2022/12/05 11:57:03;;;;;;;1.75;1.10;;;21.90;41.00;;;;;;4990391;28;20050;-59
2022/12/05 11:59:59;;;;;;;1.45;1.20;;;21.90;41.10;;;;;;4991262;28;20061;-60
2022/12/05 12:02:30;;;;;;;2.05;1.00;;;21.90;41.30;;;;;;4995750;28;20042;-60
2022/12/05 12:05:05;;;;;;;2.42;1.25;;;21.90;41.60;;;;;;4994376;28;20046;-59
2022/12/05 12:07:45;;;;;;;1.33;1.23;;;21.90;41.90;;;;;;4994282;28;20081;-60
2022/12/05 12:10:22;;;;;;;1.13;1.13;;;22.00;42.40;;;;;;4995211;28;20508;-60
2022/12/05 12:13:22;;;;;;;2.05;1.13;;;22.10;42.40;;;;;;4994547;28;20034;-60
2022/12/05 12:16:00;;;;;;;1.90;1.30;;;22.30;42.60;;;;;;4996469;28;20510;-60
2022/12/05 12:19:00;;;;;;;1.88;1.00;;;22.50;42.30;;;;;;4993532;28;20073;-61
2022/12/05 12:22:08;;;;;;;1.75;1.00;;;22.60;42.20;;;;;;4994639;28;20034;-60
2022/12/05 12:25:01;;;;;;;3.15;1.00;;;22.70;42.10;;;;;;4989049;28;20046;-60
2022/12/05 12:27:51;;;;;;;3.05;1.10;;;22.80;42.00;;;;;;4994228;28;20053;-60
2022/12/05 12:30:23;;;;;;;7.22;1.60;;;22.80;42.20;;;;;;4992860;28;20037;-59
2022/12/05 12:33:27;;;;;;;2.78;1.25;;;22.80;42.10;;;;;;4992891;28;20047;-60
2022/12/05 12:36:30;;;;;;;3.47;1.40;;;22.90;42.40;;;;;;4986853;28;20128;-60
2022/12/05 12:39:15;;;;;;;4.63;1.52;;;22.80;42.70;;;;;;4990508;28;20108;-60
2022/12/05 12:42:15;;;;;;;3.45;1.30;;;22.90;42.70;;;;;;4990253;28;20047;-60
2022/12/05 12:44:59;;;;;;;4.78;1.33;;;23.00;42.60;;;;;;4990783;28;20065;-60
2022/12/05 12:47:52;;;;;;;1.73;1.23;;;23.00;42.30;;;;;;4992422;28;20462;-60
2022/12/05 12:50:24;;;;;;;4.50;1.63;;;22.90;41.80;;;;;;4990219;28;20053;-61
2022/12/05 12:53:28;;;;;;;1.70;1.60;;;22.90;41.70;;;;;;4989837;28;20168;-60
2022/12/05 12:56:12;;;;;;;3.80;1.40;;;23.00;41.50;;;;;;4989513;28;20042;-60
2022/12/05 12:59:01;;;;;;;2.75;1.33;;;23.10;41.30;;;;;;4989585;28;20054;-61
2022/12/05 13:01:55;;;;;;;2.97;1.33;;;23.10;41.00;;;;;;4988755;28;20038;-61
2022/12/05 13:04:40;;;;;;;1.40;1.17;;;23.10;41.00;;;;;;4988972;28;20042;-61
2022/12/05 13:07:14;;;;;;;2.85;1.30;;;23.10;40.60;;;;;;4992547;28;20048;-60
2022/12/05 13:09:47;;;;;;;2.47;1.23;;;23.10;40.90;;;;;;4991485;28;20057;-61
2022/12/05 13:12:16;;;;;;;1.98;1.25;;;23.10;41.00;;;;;;4989556;28;20042;-61
2022/12/05 13:14:57;;;;;;;2.08;1.40;;;23.10;41.20;;;;;;4993176;28;20048;-60
2022/12/05 13:17:23;;;;;;;2.78;1.40;;;23.10;41.40;;;;;;4992700;28;20430;-61
2022/12/05 13:19:53;;;;;;;5.15;1.38;;;23.10;41.50;;;;;;4992439;28;20042;-61